Time;durP1;ratioP1;P1;durP2;ratioP2;P2;SDS_P1;SDS_P2;PMS_P1;PMS_P2;Temp;Humidity;BMP_temperature;BMP_pressure;BME280_temperature;BME280_humidity;BME280_pressure;Samples;Min_cycle;Max_cycle;Signal;HPM_P1;HPM_P2
2023/06/21 00:01:00;;;;;;;3.42;2.20;;;25.80;50.30;;;;;;2478064;55;20941;-73
2023/06/21 00:03:28;;;;;;;4.10;2.03;;;25.70;50.40;;;;;;2478526;55;20980;-73
2023/06/21 00:05:55;;;;;;;3.90;2.33;;;25.70;50.40;;;;;;2477111;55;21641;-72
2023/06/21 00:08:22;;;;;;;3.70;2.10;;;25.60;50.30;;;;;;2478775;55;20957;-73
2023/06/21 00:10:49;;;;;;;4.22;2.40;;;25.70;50.40;;;;;;2251479;56;20965;-74
2023/06/21 00:13:15;;;;;;;3.87;2.50;;;25.60;50.40;;;;;;2440130;56;20936;-73
2023/06/21 00:15:43;;;;;;;3.83;2.08;;;25.60;50.50;;;;;;2478105;55;21080;-72
2023/06/21 00:18:09;;;;;;;4.35;2.67;;;25.60;50.60;;;;;;2251270;56;21121;-73
2023/06/21 00:20:37;;;;;;;4.65;2.62;;;25.60;50.60;;;;;;2478362;55;20961;-72
2023/06/21 00:23:08;;;;;;;4.28;3.08;;;25.60;50.90;;;;;;2461107;55;20978;-71
2023/06/21 00:25:44;;;;;;;4.93;2.40;;;25.50;51.50;;;;;;2478085;55;21028;-72
2023/06/21 00:28:13;;;;;;;4.00;2.42;;;25.50;51.20;;;;;;2477896;55;21100;-72
2023/06/21 00:30:42;;;;;;;3.90;2.47;;;25.50;50.90;;;;;;2478247;55;20995;-73
2023/06/21 00:33:08;;;;;;;4.72;3.28;;;25.40;50.90;;;;;;2477740;55;21008;-71
2023/06/21 00:35:35;;;;;;;3.62;2.33;;;25.50;51.00;;;;;;2477839;55;20989;-71
2023/06/21 00:38:02;;;;;;;3.80;2.60;;;25.40;51.00;;;;;;2477764;55;21085;-73
2023/06/21 00:40:29;;;;;;;3.72;2.60;;;25.40;51.00;;;;;;2477988;55;21033;-73
2023/06/21 00:42:58;;;;;;;3.72;2.47;;;25.40;51.00;;;;;;2469344;55;21039;-74
2023/06/21 00:45:25;;;;;;;5.15;2.40;;;25.40;51.10;;;;;;2471180;55;21045;-72
2023/06/21 00:47:52;;;;;;;3.87;2.47;;;25.40;51.20;;;;;;2251163;56;21259;-72
2023/06/21 00:50:18;;;;;;;5.25;2.60;;;25.30;51.10;;;;;;2477242;55;20993;-73
2023/06/21 00:52:45;;;;;;;3.90;2.47;;;25.30;51.10;;;;;;2251758;56;21064;-71
2023/06/21 00:55:19;;;;;;;5.43;2.47;;;25.30;51.10;;;;;;2478096;55;20960;-72
2023/06/21 00:57:49;;;;;;;4.25;2.35;;;25.30;51.80;;;;;;2477961;55;20997;-72
2023/06/21 01:00:21;;;;;;;5.53;2.90;;;25.20;51.20;;;;;;2478451;55;20972;-73
2023/06/21 01:02:51;;;;;;;4.12;2.62;;;25.20;51.30;;;;;;2440013;55;20972;-72
2023/06/21 01:05:18;;;;;;;3.70;2.62;;;25.20;51.30;;;;;;2441538;55;21008;-73
2023/06/21 01:11:26;;;;;;;4.60;2.60;;;25.20;51.40;;;;;;2463360;55;20962;-73
2023/06/21 01:17:43;;;;;;;4.60;2.30;;;25.20;51.70;;;;;;2478070;55;21851;-72
2023/06/21 01:20:18;;;;;;;3.78;1.98;;;25.20;51.60;;;;;;2477595;55;21389;-72
2023/06/21 01:25:41;;;;;;;4.40;2.25;;;25.10;51.10;;;;;;2477788;55;21016;-72
2023/06/21 01:30:45;;;;;;;3.42;2.10;;;25.10;51.70;;;;;;2477908;55;21020;-70
2023/06/21 01:33:13;;;;;;;3.17;1.90;;;25.10;51.50;;;;;;2477882;55;21834;-72
2023/06/21 01:35:39;;;;;;;4.35;2.60;;;25.00;51.30;;;;;;2478102;55;21060;-72
2023/06/21 01:38:06;;;;;;;3.58;2.10;;;25.00;51.50;;;;;;2477479;55;20984;-73
2023/06/21 01:40:37;;;;;;;3.83;2.67;;;25.00;51.60;;;;;;2250258;56;21526;-72
2023/06/21 01:43:07;;;;;;;4.20;3.03;;;24.90;51.70;;;;;;2463492;55;20983;-73
2023/06/21 01:45:35;;;;;;;3.80;2.40;;;25.00;51.90;;;;;;2446085;55;21078;-72
2023/06/21 01:48:02;;;;;;;4.80;2.90;;;25.00;52.00;;;;;;2462032;55;21001;-72
2023/06/21 01:50:31;;;;;;;4.62;2.97;;;24.90;52.10;;;;;;2477945;55;20961;-72
2023/06/21 01:52:57;;;;;;;4.10;2.80;;;24.90;52.10;;;;;;2244092;56;20967;-72
2023/06/21 01:55:25;;;;;;;5.32;3.10;;;24.90;52.10;;;;;;2474696;55;20976;-74
2023/06/21 01:57:52;;;;;;;4.75;3.10;;;24.90;52.20;;;;;;2251819;56;20993;-72
2023/06/21 02:00:21;;;;;;;3.65;2.58;;;24.80;52.20;;;;;;2252108;56;21041;-73
2023/06/21 02:03:03;;;;;;;4.78;3.03;;;24.80;52.30;;;;;;2478097;55;20957;-72
2023/06/21 02:05:36;;;;;;;4.60;3.15;;;24.80;52.70;;;;;;2477641;55;21606;-73
2023/06/21 02:08:04;;;;;;;4.47;3.22;;;24.80;52.40;;;;;;2478111;55;20956;-72
2023/06/21 02:10:35;;;;;;;4.07;2.58;;;24.80;52.40;;;;;;2477576;55;21443;-72
2023/06/21 02:13:01;;;;;;;4.40;2.72;;;24.80;52.50;;;;;;2478201;55;20965;-72
2023/06/21 02:15:28;;;;;;;5.18;3.08;;;24.80;52.50;;;;;;2251858;56;20992;-74
2023/06/21 02:17:54;;;;;;;5.35;2.80;;;24.80;52.60;;;;;;2477101;55;20976;-72
2023/06/21 02:20:22;;;;;;;5.15;2.92;;;24.80;52.70;;;;;;2477921;55;21343;-71
2023/06/21 02:22:50;;;;;;;6.18;4.25;;;24.80;52.80;;;;;;2477379;55;21044;-73
2023/06/21 02:25:17;;;;;;;5.55;4.43;;;24.80;53.00;;;;;;2253214;56;21004;-73
2023/06/21 02:27:45;;;;;;;6.18;4.30;;;24.80;53.20;;;;;;2477831;55;21709;-77
2023/06/21 02:30:13;;;;;;;6.00;3.67;;;24.80;53.40;;;;;;2251439;56;21064;-75
2023/06/21 02:32:40;;;;;;;6.57;4.07;;;24.80;53.50;;;;;;2477606;55;21040;-77
2023/06/21 02:35:08;;;;;;;6.32;3.80;;;24.80;54.50;;;;;;2478068;55;21024;-75
2023/06/21 02:37:35;;;;;;;7.90;4.85;;;24.70;55.40;;;;;;2477569;55;21027;-75
2023/06/21 02:40:10;;;;;;;5.45;3.70;;;24.70;56.50;;;;;;2477903;55;21004;-75
2023/06/21 02:42:39;;;;;;;5.32;3.20;;;24.60;57.20;;;;;;2477175;55;21449;-76
2023/06/21 02:45:09;;;;;;;4.87;3.03;;;24.60;57.90;;;;;;2477704;55;21985;-75
2023/06/21 02:47:38;;;;;;;5.43;3.55;;;24.60;58.50;;;;;;2477464;55;20965;-76
2023/06/21 02:50:05;;;;;;;5.03;3.25;;;24.50;59.10;;;;;;2477689;55;21358;-74
2023/06/21 02:52:35;;;;;;;4.90;3.00;;;24.50;59.60;;;;;;2247002;56;20993;-72
2023/06/21 02:55:08;;;;;;;5.57;3.83;;;24.50;60.00;;;;;;2476867;55;20944;-75
2023/06/21 02:57:35;;;;;;;5.65;3.22;;;24.40;60.50;;;;;;2476790;55;21028;-74
2023/06/21 03:00:17;;;;;;;6.22;3.37;;;24.40;60.80;;;;;;2476248;55;20964;-75
2023/06/21 03:02:44;;;;;;;5.28;2.67;;;24.40;61.30;;;;;;2464409;55;20991;-74
2023/06/21 03:05:13;;;;;;;4.65;2.60;;;24.40;61.60;;;;;;2477388;55;21025;-74
2023/06/21 03:07:43;;;;;;;5.62;3.12;;;24.40;61.90;;;;;;2477894;55;20953;-74
2023/06/21 03:10:13;;;;;;;4.95;3.25;;;24.30;62.20;;;;;;2477541;55;21100;-75
2023/06/21 03:12:42;;;;;;;6.50;3.75;;;24.30;62.70;;;;;;2478000;55;21484;-75
2023/06/21 03:15:11;;;;;;;4.28;2.80;;;24.30;62.90;;;;;;2477950;55;21843;-75
2023/06/21 03:17:38;;;;;;;4.07;2.70;;;24.20;63.20;;;;;;2477627;55;21021;-75
2023/06/21 03:20:09;;;;;;;4.07;2.60;;;24.20;63.50;;;;;;2251735;56;21537;-74
2023/06/21 03:22:35;;;;;;;4.85;2.80;;;24.20;63.90;;;;;;2477294;55;20985;-74
2023/06/21 03:25:04;;;;;;;3.97;2.70;;;24.20;64.10;;;;;;2477965;55;20993;-74
2023/06/21 03:27:33;;;;;;;3.60;2.50;;;24.10;64.30;;;;;;2476924;55;21036;-74
2023/06/21 03:30:00;;;;;;;3.72;2.40;;;24.10;64.50;;;;;;2469277;55;20966;-74
2023/06/21 03:32:30;;;;;;;5.45;2.40;;;24.10;64.60;;;;;;2470257;55;21333;-74
2023/06/21 03:34:58;;;;;;;3.92;2.20;;;24.10;64.80;;;;;;2477178;55;21012;-74
2023/06/21 03:37:27;;;;;;;3.62;2.25;;;24.10;64.90;;;;;;2478018;55;21020;-73
2023/06/21 03:39:55;;;;;;;3.85;2.20;;;24.00;64.90;;;;;;2463264;55;21922;-74
2023/06/21 03:42:21;;;;;;;4.53;2.37;;;24.00;65.10;;;;;;2477921;55;21056;-74
2023/06/21 03:44:48;;;;;;;3.50;2.08;;;24.00;65.30;;;;;;2475836;55;21169;-74
2023/06/21 03:47:21;;;;;;;3.75;2.10;;;24.00;65.50;;;;;;2465399;55;21204;-74
2023/06/21 03:49:51;;;;;;;3.22;1.65;;;24.00;65.70;;;;;;2478332;55;20973;-74
2023/06/21 03:52:17;;;;;;;3.35;2.17;;;23.90;65.70;;;;;;2478117;55;20948;-74
2023/06/21 03:54:44;;;;;;;3.75;2.03;;;23.90;66.00;;;;;;2477321;55;20988;-74
2023/06/21 03:57:11;;;;;;;3.58;1.98;;;23.90;66.10;;;;;;2477541;55;20960;-74
2023/06/21 03:59:38;;;;;;;4.03;2.17;;;23.90;66.30;;;;;;2477468;55;20964;-73
2023/06/21 04:02:06;;;;;;;3.47;1.95;;;23.90;66.40;;;;;;2478196;55;20940;-73
2023/06/21 04:04:32;;;;;;;3.35;2.00;;;23.90;66.50;;;;;;2477533;55;20949;-73
2023/06/21 04:06:59;;;;;;;3.75;2.00;;;23.80;66.50;;;;;;2469615;55;21478;-73
2023/06/21 04:09:29;;;;;;;3.55;2.15;;;23.80;66.60;;;;;;2470211;55;20964;-71
2023/06/21 04:11:58;;;;;;;4.35;2.15;;;23.80;66.60;;;;;;2477970;55;21601;-73
2023/06/21 04:14:24;;;;;;;4.82;2.50;;;23.80;67.50;;;;;;2467475;55;21015;-73
2023/06/21 04:16:52;;;;;;;3.35;1.92;;;23.80;66.90;;;;;;2473927;55;21442;-73
2023/06/21 04:19:18;;;;;;;4.97;2.30;;;23.70;66.90;;;;;;2462081;56;20987;-73
2023/06/21 04:21:45;;;;;;;3.83;2.20;;;23.80;67.30;;;;;;2477775;55;20965;-73
2023/06/21 04:24:14;;;;;;;4.35;2.28;;;23.70;67.30;;;;;;2478431;55;20969;-74
2023/06/21 04:26:44;;;;;;;3.03;1.90;;;23.70;67.50;;;;;;2477375;55;20973;-73
2023/06/21 04:29:10;;;;;;;3.65;2.10;;;23.70;67.50;;;;;;2477675;55;21021;-73
2023/06/21 04:31:39;;;;;;;3.40;1.98;;;23.80;67.70;;;;;;2476641;55;21598;-74
2023/06/21 04:34:06;;;;;;;3.87;2.00;;;23.80;67.80;;;;;;2478662;55;20929;-73
2023/06/21 04:36:32;;;;;;;4.03;1.83;;;23.70;67.70;;;;;;2252305;56;21024;-74
2023/06/21 04:39:00;;;;;;;3.25;2.17;;;23.70;67.70;;;;;;2466536;55;21009;-73
2023/06/21 04:41:27;;;;;;;3.97;2.15;;;23.70;67.80;;;;;;2478377;55;20943;-73
2023/06/21 04:43:53;;;;;;;4.03;2.25;;;23.70;67.90;;;;;;2478048;55;20933;-74
2023/06/21 04:46:27;;;;;;;3.83;2.10;;;23.70;67.80;;;;;;2478217;55;21031;-72
2023/06/21 04:48:55;;;;;;;3.62;1.92;;;23.70;68.00;;;;;;2478351;55;22172;-74
2023/06/21 04:51:21;;;;;;;3.25;1.90;;;23.60;68.00;;;;;;2439139;55;21358;-74
2023/06/21 04:53:48;;;;;;;3.87;1.83;;;23.60;68.00;;;;;;2474818;55;21554;-74
2023/06/21 04:56:16;;;;;;;3.72;2.03;;;23.60;68.30;;;;;;2478858;55;21414;-74
2023/06/21 04:58:47;;;;;;;4.68;2.25;;;23.60;68.50;;;;;;2478088;55;20980;-73
2023/06/21 05:01:13;;;;;;;3.62;2.15;;;23.60;68.70;;;;;;2477867;55;20993;-74
2023/06/21 05:03:40;;;;;;;3.60;2.10;;;23.60;68.80;;;;;;2476850;55;20961;-74
2023/06/21 05:06:06;;;;;;;3.83;2.53;;;23.60;69.00;;;;;;2477265;55;20969;-73
2023/06/21 05:08:43;;;;;;;3.60;2.17;;;23.70;69.30;;;;;;2252589;56;21024;-74
2023/06/21 05:11:12;;;;;;;3.37;1.92;;;23.70;69.60;;;;;;2478516;55;20983;-74
2023/06/21 05:13:42;;;;;;;3.45;1.92;;;23.70;69.70;;;;;;2477756;55;21613;-73
2023/06/21 05:16:11;;;;;;;3.70;2.40;;;23.70;69.90;;;;;;2478313;55;21794;-74
2023/06/21 05:18:42;;;;;;;4.43;2.33;;;23.70;70.20;;;;;;2477126;55;20997;-73
2023/06/21 05:21:09;;;;;;;5.82;3.33;;;23.70;71.10;;;;;;2476841;55;21020;-74
2023/06/21 05:23:35;;;;;;;4.30;2.58;;;23.70;70.60;;;;;;2477363;55;21448;-73
2023/06/21 05:26:05;;;;;;;4.70;2.80;;;23.80;70.80;;;;;;2478469;55;20961;-74
2023/06/21 05:28:33;;;;;;;4.75;2.80;;;23.80;71.10;;;;;;2478089;55;20992;-73
2023/06/21 05:31:00;;;;;;;4.00;2.80;;;23.80;71.20;;;;;;2477723;55;20949;-74
2023/06/21 05:33:28;;;;;;;4.18;2.50;;;23.90;71.40;;;;;;2478557;55;21938;-74
2023/06/21 05:35:57;;;;;;;3.65;2.47;;;23.90;71.50;;;;;;2477756;55;21016;-73
2023/06/21 05:38:24;;;;;;;4.45;2.80;;;23.90;71.70;;;;;;2461746;55;21453;-74
2023/06/21 05:40:53;;;;;;;4.45;2.45;;;24.00;71.80;;;;;;2477202;55;20945;-74
2023/06/21 05:43:20;;;;;;;3.70;2.28;;;24.00;71.90;;;;;;2478500;55;20996;-74
2023/06/21 05:45:51;;;;;;;3.92;2.30;;;24.10;72.10;;;;;;2251732;56;21016;-73
2023/06/21 05:48:18;;;;;;;4.22;2.40;;;24.10;72.20;;;;;;2473445;55;21023;-74
2023/06/21 05:50:49;;;;;;;3.87;2.42;;;24.10;72.40;;;;;;2467893;55;20957;-74
2023/06/21 05:53:17;;;;;;;3.90;2.67;;;24.20;72.60;;;;;;2478628;55;20945;-74
2023/06/21 05:55:46;;;;;;;4.00;2.50;;;24.20;73.50;;;;;;2469174;55;21447;-73
2023/06/21 05:58:12;;;;;;;4.40;2.47;;;24.30;72.90;;;;;;2472581;55;21468;-74
2023/06/21 06:00:40;;;;;;;4.45;2.78;;;24.30;73.00;;;;;;2477881;55;21079;-74
2023/06/21 06:03:08;;;;;;;4.25;2.67;;;24.40;73.20;;;;;;2251528;56;20949;-74
2023/06/21 06:05:35;;;;;;;5.70;2.67;;;24.50;73.30;;;;;;2477960;55;20945;-74
2023/06/21 06:08:02;;;;;;;4.55;3.37;;;24.50;73.20;;;;;;2467143;55;20986;-74
2023/06/21 06:10:28;;;;;;;4.30;2.92;;;24.60;73.20;;;;;;2474669;55;21041;-74
2023/06/21 06:12:55;;;;;;;3.78;2.45;;;24.60;73.20;;;;;;2477699;55;21470;-74
2023/06/21 06:15:22;;;;;;;4.57;2.75;;;24.60;73.20;;;;;;2478660;55;21033;-74
2023/06/21 06:17:50;;;;;;;3.50;2.30;;;24.70;73.40;;;;;;2251843;56;20988;-73
2023/06/21 06:20:18;;;;;;;3.67;2.58;;;24.70;73.30;;;;;;2478409;55;20952;-74
2023/06/21 06:22:45;;;;;;;3.95;2.60;;;24.80;73.50;;;;;;2477740;55;21016;-74
2023/06/21 06:25:15;;;;;;;5.72;3.20;;;24.80;73.30;;;;;;2462297;55;20959;-74
2023/06/21 06:27:41;;;;;;;4.68;2.83;;;24.90;73.50;;;;;;2477413;55;20949;-74
2023/06/21 06:30:08;;;;;;;5.37;3.30;;;24.90;74.10;;;;;;2478415;55;21037;-72
2023/06/21 06:32:35;;;;;;;4.28;3.00;;;25.00;73.60;;;;;;2478523;55;20948;-73
2023/06/21 06:35:02;;;;;;;3.92;2.90;;;25.00;73.50;;;;;;2478056;55;20980;-74
2023/06/21 06:37:29;;;;;;;4.43;2.87;;;25.00;73.50;;;;;;2464358;55;20999;-73
2023/06/21 06:39:57;;;;;;;5.25;3.62;;;25.10;73.60;;;;;;2474639;55;22019;-73
2023/06/21 06:42:29;;;;;;;4.70;3.10;;;25.10;73.60;;;;;;2235382;56;20981;-73
2023/06/21 06:44:56;;;;;;;4.47;3.15;;;25.10;73.60;;;;;;2466248;55;20937;-74
2023/06/21 06:47:22;;;;;;;5.05;3.22;;;25.20;73.60;;;;;;2478728;55;21092;-74
2023/06/21 06:49:49;;;;;;;4.90;3.47;;;25.20;73.70;;;;;;2468444;55;21043;-74
2023/06/21 06:52:20;;;;;;;4.12;2.90;;;25.20;73.80;;;;;;2473008;55;21014;-73
2023/06/21 06:54:46;;;;;;;5.80;3.22;;;25.30;73.80;;;;;;2251115;56;21534;-73
2023/06/21 06:57:15;;;;;;;4.53;3.03;;;25.30;73.90;;;;;;2465605;55;21058;-74
2023/06/21 06:59:48;;;;;;;4.50;3.42;;;25.40;74.00;;;;;;2475025;55;20965;-73
2023/06/21 07:02:16;;;;;;;6.32;3.75;;;25.40;74.00;;;;;;2465341;55;21039;-74
2023/06/21 07:04:45;;;;;;;5.57;3.97;;;25.50;73.80;;;;;;2474714;55;20961;-74
2023/06/21 07:07:13;;;;;;;5.78;3.90;;;25.50;73.50;;;;;;2251601;56;21034;-74
2023/06/21 07:09:39;;;;;;;4.70;3.35;;;25.50;73.60;;;;;;2466676;55;20940;-74
2023/06/21 07:12:08;;;;;;;5.30;3.62;;;25.60;73.60;;;;;;2471536;55;21023;-74
2023/06/21 07:14:35;;;;;;;4.78;3.55;;;25.60;73.50;;;;;;2246122;56;21060;-73
2023/06/21 07:17:04;;;;;;;4.80;3.20;;;25.60;73.50;;;;;;2478348;55;21005;-75
2023/06/21 07:19:31;;;;;;;4.37;3.33;;;25.60;73.40;;;;;;2457579;55;20952;-73
2023/06/21 07:21:57;;;;;;;5.43;4.20;;;25.70;73.50;;;;;;2451932;55;21935;-74
2023/06/21 07:24:24;;;;;;;6.95;3.92;;;25.70;73.40;;;;;;2465343;55;21053;-74
2023/06/21 07:26:52;;;;;;;5.20;3.62;;;25.70;73.40;;;;;;2251109;56;20949;-74
2023/06/21 07:29:22;;;;;;;7.57;4.00;;;25.70;73.40;;;;;;2478615;55;21406;-73
2023/06/21 07:31:48;;;;;;;6.07;4.60;;;25.70;73.40;;;;;;2461868;55;21443;-73
2023/06/21 07:34:17;;;;;;;6.82;5.40;;;25.70;73.40;;;;;;2473353;55;20995;-74
2023/06/21 07:36:43;;;;;;;5.90;4.60;;;25.80;73.30;;;;;;2467367;55;21008;-74
2023/06/21 07:39:09;;;;;;;8.15;5.70;;;25.80;73.20;;;;;;2478259;55;20980;-73
2023/06/21 07:41:37;;;;;;;7.18;5.45;;;25.80;73.20;;;;;;2478114;55;20953;-73
2023/06/21 07:44:05;;;;;;;8.60;5.60;;;25.80;73.10;;;;;;2478344;55;20996;-74
2023/06/21 07:46:32;;;;;;;6.60;5.07;;;25.80;72.90;;;;;;2478163;55;21076;-74
2023/06/21 07:48:58;;;;;;;7.05;5.78;;;25.80;72.90;;;;;;2478352;55;21028;-74
2023/06/21 07:51:30;;;;;;;9.55;6.18;;;25.80;72.90;;;;;;2478901;55;20997;-72
2023/06/21 07:53:57;;;;;;;8.07;5.62;;;25.80;72.60;;;;;;2462708;55;20983;-74
2023/06/21 07:56:23;;;;;;;6.30;4.85;;;25.80;72.70;;;;;;2240402;56;21042;-74
2023/06/21 07:58:52;;;;;;;6.45;4.75;;;25.70;72.80;;;;;;2447878;55;21760;-74
2023/06/21 08:01:18;;;;;;;5.87;4.40;;;25.80;73.00;;;;;;2478723;55;21806;-74
2023/06/21 08:03:45;;;;;;;7.03;4.60;;;25.80;73.00;;;;;;2477844;55;20966;-75
2023/06/21 08:06:12;;;;;;;5.82;4.30;;;25.80;73.10;;;;;;2478614;55;21241;-74
2023/06/21 08:08:38;;;;;;;5.95;4.10;;;25.80;73.00;;;;;;2470677;55;21063;-74
2023/06/21 08:11:08;;;;;;;4.15;3.12;;;25.80;72.90;;;;;;2470723;55;20945;-73
2023/06/21 08:13:34;;;;;;;6.43;3.62;;;25.80;72.90;;;;;;2478511;55;21008;-74
2023/06/21 08:16:01;;;;;;;4.65;3.70;;;25.80;73.00;;;;;;2478082;55;20924;-74
2023/06/21 08:18:27;;;;;;;5.20;3.75;;;25.70;72.90;;;;;;2478296;55;21044;-74
2023/06/21 08:21:00;;;;;;;4.80;3.67;;;25.80;73.10;;;;;;2478071;55;21056;-74
2023/06/21 08:23:26;;;;;;;5.28;3.40;;;25.80;73.00;;;;;;2478570;55;20981;-74
2023/06/21 08:25:54;;;;;;;4.93;3.50;;;25.80;73.20;;;;;;2477072;55;20976;-74
2023/06/21 08:28:21;;;;;;;5.00;3.50;;;25.80;73.00;;;;;;2478245;55;20965;-75
2023/06/21 08:30:48;;;;;;;4.80;3.42;;;25.80;73.10;;;;;;2473019;55;21114;-74
2023/06/21 08:33:15;;;;;;;6.85;3.62;;;25.70;73.10;;;;;;2467851;55;21004;-75
2023/06/21 08:35:41;;;;;;;4.95;3.67;;;25.80;73.20;;;;;;2477519;55;21487;-75
2023/06/21 08:38:10;;;;;;;7.30;4.12;;;25.80;73.20;;;;;;2477989;55;20981;-73
2023/06/21 08:40:48;;;;;;;4.87;3.33;;;25.80;73.00;;;;;;2477171;55;21004;-74
2023/06/21 08:43:18;;;;;;;4.80;3.55;;;25.80;73.00;;;;;;2478966;55;21019;-75
2023/06/21 08:45:47;;;;;;;4.62;3.37;;;25.80;73.00;;;;;;2477410;55;21056;-74
2023/06/21 08:48:14;;;;;;;5.32;3.50;;;25.80;72.80;;;;;;2477950;55;21012;-74
2023/06/21 08:50:41;;;;;;;6.62;4.15;;;25.80;73.00;;;;;;2248108;56;20955;-74
2023/06/21 08:53:08;;;;;;;6.12;3.97;;;25.80;73.00;;;;;;2471021;55;20960;-74
2023/06/21 08:55:35;;;;;;;6.30;4.50;;;25.80;73.00;;;;;;2478393;55;21047;-75
2023/06/21 08:58:09;;;;;;;6.47;4.72;;;25.80;73.00;;;;;;2477965;55;20942;-74
2023/06/21 09:00:59;;;;;;;5.28;3.83;;;25.80;72.90;;;;;;2478364;55;20980;-73
2023/06/21 09:03:28;;;;;;;5.18;4.28;;;25.80;73.30;;;;;;2479091;55;21015;-74
2023/06/21 09:06:00;;;;;;;6.22;4.55;;;25.90;73.50;;;;;;2477423;55;21464;-74
2023/06/21 09:08:35;;;;;;;7.62;4.57;;;25.80;73.60;;;;;;2252565;56;21044;-74
2023/06/21 09:11:02;;;;;;;6.30;4.67;;;25.90;73.50;;;;;;2479100;55;21415;-73
2023/06/21 09:13:29;;;;;;;5.75;4.75;;;25.90;73.70;;;;;;2478512;55;21012;-73
2023/06/21 09:15:58;;;;;;;5.12;4.25;;;25.90;73.80;;;;;;2249988;56;21760;-74
2023/06/21 09:18:25;;;;;;;7.03;4.68;;;25.90;73.90;;;;;;2477213;55;20968;-74
2023/06/21 09:20:51;;;;;;;5.95;4.95;;;25.90;74.00;;;;;;2461483;55;21111;-74
2023/06/21 09:23:18;;;;;;;6.22;5.43;;;25.90;74.10;;;;;;2477797;55;20989;-73
2023/06/21 09:25:44;;;;;;;6.05;5.12;;;26.00;74.10;;;;;;2477239;55;20909;-73
2023/06/21 09:28:11;;;;;;;6.15;4.87;;;26.00;74.00;;;;;;2478066;55;20973;-72
2023/06/21 09:30:39;;;;;;;6.35;5.35;;;26.10;74.20;;;;;;2478256;55;21060;-74
2023/06/21 09:33:05;;;;;;;6.25;5.10;;;26.10;74.20;;;;;;2478412;55;21037;-74
2023/06/21 09:35:33;;;;;;;6.65;5.65;;;26.20;74.20;;;;;;2252885;56;21036;-74
2023/06/21 09:37:59;;;;;;;6.28;5.40;;;26.20;74.20;;;;;;2251438;56;21008;-74
2023/06/21 09:40:27;;;;;;;6.12;5.15;;;26.30;74.20;;;;;;2479283;55;21013;-73
2023/06/21 09:42:53;;;;;;;7.03;5.47;;;26.30;74.30;;;;;;2478352;55;20981;-75
2023/06/21 09:45:20;;;;;;;7.10;5.70;;;26.30;74.20;;;;;;2251979;56;20953;-74
2023/06/21 09:47:46;;;;;;;7.18;5.62;;;26.40;74.00;;;;;;2478149;55;20953;-73
2023/06/21 09:50:13;;;;;;;7.90;5.35;;;26.40;73.90;;;;;;2479067;55;21132;-74
2023/06/21 09:52:43;;;;;;;7.80;6.00;;;26.50;74.00;;;;;;2478896;55;21453;-74
2023/06/21 09:55:14;;;;;;;7.87;5.40;;;26.50;73.60;;;;;;2479183;55;20980;-74
2023/06/21 09:57:41;;;;;;;5.62;4.95;;;26.60;73.80;;;;;;2478413;55;20949;-74
2023/06/21 10:00:08;;;;;;;6.62;5.53;;;26.60;73.90;;;;;;2478998;55;21009;-74
2023/06/21 10:02:40;;;;;;;6.20;4.95;;;26.70;74.00;;;;;;2478915;55;21044;-73
2023/06/21 10:05:18;;;;;;;7.43;5.82;;;26.70;73.40;;;;;;2478832;55;20937;-74
2023/06/21 10:07:47;;;;;;;6.45;5.10;;;26.80;73.20;;;;;;2478390;55;21093;-74
2023/06/21 10:10:13;;;;;;;7.35;5.50;;;26.80;73.90;;;;;;2252332;56;21012;-73
2023/06/21 10:12:52;;;;;;;5.93;4.45;;;26.90;73.80;;;;;;2478352;55;21008;-74
2023/06/21 10:15:22;;;;;;;6.50;5.10;;;27.00;73.00;;;;;;2478918;55;21012;-74
2023/06/21 10:17:49;;;;;;;6.97;5.07;;;27.00;73.60;;;;;;2477994;55;21437;-74
2023/06/21 10:20:30;;;;;;;6.03;5.12;;;27.10;73.70;;;;;;2479690;55;21013;-74
2023/06/21 10:22:58;;;;;;;5.40;4.15;;;27.10;73.70;;;;;;2477282;55;21044;-74
2023/06/21 10:25:26;;;;;;;5.15;4.28;;;27.20;73.60;;;;;;2252498;56;20993;-75
2023/06/21 10:27:55;;;;;;;5.10;4.10;;;27.20;73.70;;;;;;2478096;55;20953;-74
2023/06/21 10:30:23;;;;;;;5.80;4.18;;;27.30;73.80;;;;;;2479355;55;20965;-74
2023/06/21 10:32:49;;;;;;;9.27;5.12;;;27.40;73.70;;;;;;2478573;55;20960;-74
2023/06/21 10:35:19;;;;;;;5.28;4.03;;;27.40;73.50;;;;;;2478845;55;20953;-75
2023/06/21 10:39:49;;;;;;;4.43;3.30;;;27.50;73.20;;;;;;2466941;55;21094;-74
2023/06/21 10:42:19;;;;;;;4.55;3.25;;;27.50;72.40;;;;;;2478445;55;21008;-75
2023/06/21 10:44:47;;;;;;;5.00;3.42;;;27.70;73.30;;;;;;2478401;55;21438;-74
2023/06/21 10:47:15;;;;;;;4.80;2.20;;;27.70;72.90;;;;;;2475065;55;21618;-76
2023/06/21 10:49:43;;;;;;;3.60;2.40;;;27.70;72.70;;;;;;2466926;55;21513;-75
2023/06/21 10:52:09;;;;;;;4.53;2.70;;;27.80;72.40;;;;;;2471726;55;20958;-74
2023/06/21 10:54:37;;;;;;;3.90;2.50;;;27.80;72.10;;;;;;2438664;56;20954;-74
2023/06/21 10:57:04;;;;;;;4.03;2.72;;;27.80;72.10;;;;;;2250143;56;21047;-74
2023/06/21 10:59:31;;;;;;;4.12;2.58;;;27.90;71.70;;;;;;2254010;56;21061;-74
2023/06/21 11:02:01;;;;;;;3.83;2.67;;;27.90;71.50;;;;;;2437314;56;21045;-74
2023/06/21 11:04:28;;;;;;;4.12;2.60;;;27.90;71.30;;;;;;2469587;55;20991;-75
2023/06/21 11:07:09;;;;;;;4.00;2.72;;;28.00;71.20;;;;;;2474120;55;20932;-73
2023/06/21 11:09:37;;;;;;;4.57;3.30;;;28.00;70.90;;;;;;2478385;55;20929;-73
2023/06/21 11:12:08;;;;;;;9.75;3.30;;;28.00;70.90;;;;;;2478251;55;20964;-74
2023/06/21 11:14:39;;;;;;;9.68;2.87;;;28.00;70.80;;;;;;2478889;55;20996;-73
2023/06/21 11:17:12;;;;;;;4.07;2.85;;;28.10;70.60;;;;;;2251722;56;20977;-73
2023/06/21 11:19:38;;;;;;;3.87;2.58;;;28.10;70.20;;;;;;2242807;56;21007;-74
2023/06/21 11:22:16;;;;;;;4.15;3.17;;;28.10;70.60;;;;;;2242524;56;20978;-75
2023/06/21 11:24:57;;;;;;;3.90;2.85;;;28.10;69.40;;;;;;2476557;55;20976;-74
2023/06/21 11:27:26;;;;;;;3.65;2.37;;;28.10;69.60;;;;;;2477606;55;21749;-73
2023/06/21 11:29:59;;;;;;;3.62;2.50;;;28.20;70.40;;;;;;2477368;55;21041;-74
2023/06/21 11:32:29;;;;;;;3.67;2.47;;;28.20;70.00;;;;;;2478562;55;20976;-72
2023/06/21 11:34:56;;;;;;;4.07;2.83;;;28.20;70.00;;;;;;2250659;56;21028;-74
2023/06/21 11:37:39;;;;;;;4.22;3.08;;;28.20;70.40;;;;;;2251411;56;20981;-74
2023/06/21 11:40:15;;;;;;;5.15;2.80;;;28.30;68.90;;;;;;2251298;56;21013;-74
2023/06/21 11:42:52;;;;;;;4.35;2.67;;;28.30;69.60;;;;;;2478476;55;20985;-74
2023/06/21 11:45:35;;;;;;;4.87;3.15;;;28.40;68.90;;;;;;2252339;56;20936;-75
2023/06/21 11:48:12;;;;;;;4.80;2.70;;;28.40;68.00;;;;;;2471548;55;21040;-74
2023/06/21 11:50:50;;;;;;;3.60;2.58;;;28.50;68.10;;;;;;2468361;55;21050;-74
2023/06/21 11:53:26;;;;;;;3.70;2.70;;;28.50;68.10;;;;;;2476586;55;21958;-74
2023/06/21 11:56:00;;;;;;;4.43;2.80;;;28.50;68.50;;;;;;2460963;55;21598;-74
2023/06/21 11:58:27;;;;;;;3.83;2.53;;;28.50;68.50;;;;;;2477785;55;21021;-74
2023/06/21 12:00:54;;;;;;;4.90;2.55;;;28.50;68.80;;;;;;2477503;55;21115;-74
2023/06/21 12:03:22;;;;;;;3.78;2.42;;;28.60;68.80;;;;;;2252350;56;20984;-74
2023/06/21 12:05:55;;;;;;;3.80;2.37;;;28.60;68.60;;;;;;2251625;56;21016;-74
2023/06/21 12:08:39;;;;;;;4.37;2.15;;;28.60;67.70;;;;;;2477304;55;21488;-74
2023/06/21 12:11:09;;;;;;;3.22;2.25;;;28.70;67.00;;;;;;2477727;55;20972;-74
2023/06/21 12:13:37;;;;;;;5.22;2.40;;;28.70;68.30;;;;;;2250063;56;20997;-72
2023/06/21 12:16:05;;;;;;;3.65;2.53;;;28.70;68.00;;;;;;2242125;56;21070;-72
2023/06/21 12:18:33;;;;;;;3.90;1.92;;;28.70;68.20;;;;;;2252412;56;21044;-74
2023/06/21 12:21:02;;;;;;;3.83;2.15;;;28.80;68.30;;;;;;2251647;56;21032;-74
2023/06/21 12:23:29;;;;;;;4.47;2.45;;;28.80;68.10;;;;;;2225192;57;21025;-74
2023/06/21 12:26:01;;;;;;;4.07;2.53;;;28.90;68.00;;;;;;2477408;55;20961;-75
2023/06/21 12:28:27;;;;;;;3.35;2.20;;;28.90;67.40;;;;;;2252944;56;20973;-75
2023/06/21 12:31:06;;;;;;;4.32;2.58;;;28.90;68.00;;;;;;2251941;56;20993;-72
2023/06/21 12:33:37;;;;;;;3.92;2.65;;;29.00;66.80;;;;;;2464587;55;20959;-73
2023/06/21 12:36:20;;;;;;;4.87;2.58;;;29.10;67.50;;;;;;2252741;56;20961;-75
2023/06/21 12:38:57;;;;;;;3.67;2.20;;;29.10;66.50;;;;;;2465512;55;20970;-74
2023/06/21 12:41:27;;;;;;;5.05;2.83;;;29.20;67.00;;;;;;2477455;55;20989;-74
2023/06/21 12:43:57;;;;;;;3.80;2.70;;;29.30;67.80;;;;;;2251755;56;21076;-73
2023/06/21 12:46:23;;;;;;;4.18;2.72;;;29.30;67.70;;;;;;2478597;55;20952;-75
2023/06/21 12:48:56;;;;;;;4.15;2.70;;;29.40;67.50;;;;;;2254626;56;20977;-75
2023/06/21 12:51:29;;;;;;;4.32;2.78;;;29.40;66.60;;;;;;2478802;55;20960;-75
2023/06/21 12:54:12;;;;;;;4.40;2.83;;;29.50;66.40;;;;;;2478606;55;21628;-74
2023/06/21 12:56:40;;;;;;;4.50;2.53;;;29.60;66.50;;;;;;2479545;55;21689;-74
2023/06/21 12:59:06;;;;;;;3.55;2.50;;;29.60;66.90;;;;;;2251928;56;20976;-75
2023/06/21 13:01:35;;;;;;;3.67;2.40;;;29.70;66.90;;;;;;2478879;55;21921;-75
2023/06/21 13:04:12;;;;;;;3.45;2.15;;;29.80;66.80;;;;;;2478371;55;20972;-74
2023/06/21 13:06:39;;;;;;;3.90;2.37;;;29.80;66.50;;;;;;2479177;55;21027;-74
2023/06/21 13:09:05;;;;;;;3.97;2.40;;;29.80;66.60;;;;;;2251386;56;20972;-75
2023/06/21 13:11:32;;;;;;;4.00;2.17;;;29.90;66.30;;;;;;2253147;56;21162;-74